sensor_id;sensor_type;location;lat;lon;timestamp;P1;durP1;ratioP1;P2;durP2;ratioP2
21621;SDS011;10973;46.706;12.340;2022-08-16T00:02:20;3.40;;;3.20;;
21621;SDS011;10973;46.706;12.340;2022-08-16T00:08:29;5.30;;;4.73;;
21621;SDS011;10973;46.706;12.340;2022-08-16T00:14:44;8.10;;;4.90;;
21621;SDS011;10973;46.706;12.340;2022-08-16T00:17:12;5.30;;;4.80;;
21621;SDS011;10973;46.706;12.340;2022-08-16T00:19:45;5.90;;;5.40;;
21621;SDS011;10973;46.706;12.340;2022-08-16T00:22:19;5.13;;;4.63;;
21621;SDS011;10973;46.706;12.340;2022-08-16T00:24:53;5.13;;;4.67;;
21621;SDS011;10973;46.706;12.340;2022-08-16T00:27:21;7.97;;;7.27;;
21621;SDS011;10973;46.706;12.340;2022-08-16T00:29:49;6.57;;;5.97;;
21621;SDS011;10973;46.706;12.340;2022-08-16T00:32:35;8.20;;;7.50;;
21621;SDS011;10973;46.706;12.340;2022-08-16T00:35:05;5.87;;;5.37;;
21621;SDS011;10973;46.706;12.340;2022-08-16T00:37:41;6.53;;;5.93;;
21621;SDS011;10973;46.706;12.340;2022-08-16T00:40:31;6.03;;;5.53;;
21621;SDS011;10973;46.706;12.340;2022-08-16T00:43:21;5.97;;;5.47;;
21621;SDS011;10973;46.706;12.340;2022-08-16T00:50:13;4.40;;;4.03;;
21621;SDS011;10973;46.706;12.340;2022-08-16T00:52:42;5.03;;;4.53;;
21621;SDS011;10973;46.706;12.340;2022-08-16T00:55:17;5.10;;;4.70;;
21621;SDS011;10973;46.706;12.340;2022-08-16T00:57:47;4.67;;;4.33;;
21621;SDS011;10973;46.706;12.340;2022-08-16T01:00:25;5.17;;;4.70;;
21621;SDS011;10973;46.706;12.340;2022-08-16T01:02:56;6.97;;;6.37;;
21621;SDS011;10973;46.706;12.340;2022-08-16T01:05:28;17.93;;;16.27;;
21621;SDS011;10973;46.706;12.340;2022-08-16T01:07:58;8.70;;;7.80;;
21621;SDS011;10973;46.706;12.340;2022-08-16T01:14:19;4.03;;;3.67;;
21621;SDS011;10973;46.706;12.340;2022-08-16T01:20:39;4.00;;;3.70;;
21621;SDS011;10973;46.706;12.340;2022-08-16T01:32:46;3.93;;;3.67;;
21621;SDS011;10973;46.706;12.340;2022-08-16T01:39:12;4.37;;;4.07;;
21621;SDS011;10973;46.706;12.340;2022-08-16T01:45:23;4.03;;;3.73;;
21621;SDS011;10973;46.706;12.340;2022-08-16T01:48:06;4.37;;;3.97;;
21621;SDS011;10973;46.706;12.340;2022-08-16T01:50:46;4.70;;;4.30;;
21621;SDS011;10973;46.706;12.340;2022-08-16T01:53:36;4.10;;;3.90;;
21621;SDS011;10973;46.706;12.340;2022-08-16T01:59:58;4.70;;;4.40;;
21621;SDS011;10973;46.706;12.340;2022-08-16T02:02:27;5.77;;;3.73;;
21621;SDS011;10973;46.706;12.340;2022-08-16T02:08:36;3.77;;;3.47;;
21621;SDS011;10973;46.706;12.340;2022-08-16T02:14:45;5.63;;;5.20;;
21621;SDS011;10973;46.706;12.340;2022-08-16T02:17:13;5.80;;;5.30;;
21621;SDS011;10973;46.706;12.340;2022-08-16T02:23:32;6.53;;;5.93;;
21621;SDS011;10973;46.706;12.340;2022-08-16T02:26:06;6.33;;;5.73;;
21621;SDS011;10973;46.706;12.340;2022-08-16T02:28:33;9.13;;;7.50;;
21621;SDS011;10973;46.706;12.340;2022-08-16T02:31:03;10.27;;;7.70;;
21621;SDS011;10973;46.706;12.340;2022-08-16T02:33:34;6.93;;;6.23;;
21621;SDS011;10973;46.706;12.340;2022-08-16T02:40:06;7.80;;;6.20;;
21621;SDS011;10973;46.706;12.340;2022-08-16T02:42:35;6.50;;;6.00;;
21621;SDS011;10973;46.706;12.340;2022-08-16T02:49:34;5.07;;;4.60;;
21621;SDS011;10973;46.706;12.340;2022-08-16T02:52:22;4.83;;;4.43;;
21621;SDS011;10973;46.706;12.340;2022-08-16T02:54:54;4.30;;;4.00;;
21621;SDS011;10973;46.706;12.340;2022-08-16T02:57:23;5.40;;;4.90;;
21621;SDS011;10973;46.706;12.340;2022-08-16T02:59:52;6.27;;;5.13;;
21621;SDS011;10973;46.706;12.340;2022-08-16T03:02:19;4.97;;;4.47;;
21621;SDS011;10973;46.706;12.340;2022-08-16T03:04:57;5.10;;;4.70;;
21621;SDS011;10973;46.706;12.340;2022-08-16T03:07:25;5.03;;;4.60;;
21621;SDS011;10973;46.706;12.340;2022-08-16T03:09:53;5.17;;;4.70;;
21621;SDS011;10973;46.706;12.340;2022-08-16T03:12:26;5.60;;;5.20;;
21621;SDS011;10973;46.706;12.340;2022-08-16T03:15:02;6.33;;;5.83;;
21621;SDS011;10973;46.706;12.340;2022-08-16T03:17:31;6.23;;;5.60;;
21621;SDS011;10973;46.706;12.340;2022-08-16T03:19:58;5.80;;;5.30;;
21621;SDS011;10973;46.706;12.340;2022-08-16T03:36:08;4.10;;;3.80;;
21621;SDS011;10973;46.706;12.340;2022-08-16T03:38:55;4.50;;;4.10;;
21621;SDS011;10973;46.706;12.340;2022-08-16T03:48:10;4.30;;;4.00;;
21621;SDS011;10973;46.706;12.340;2022-08-16T03:54:36;5.23;;;4.43;;
21621;SDS011;10973;46.706;12.340;2022-08-16T04:01:00;5.53;;;5.20;;
21621;SDS011;10973;46.706;12.340;2022-08-16T04:03:29;4.90;;;4.50;;
21621;SDS011;10973;46.706;12.340;2022-08-16T04:09:49;4.50;;;4.20;;
21621;SDS011;10973;46.706;12.340;2022-08-16T04:12:18;4.20;;;3.90;;
21621;SDS011;10973;46.706;12.340;2022-08-16T04:15:07;4.37;;;4.10;;
21621;SDS011;10973;46.706;12.340;2022-08-16T04:17:42;6.17;;;4.90;;
21621;SDS011;10973;46.706;12.340;2022-08-16T04:24:01;4.40;;;4.00;;
21621;SDS011;10973;46.706;12.340;2022-08-16T04:26:33;5.57;;;4.00;;
21621;SDS011;10973;46.706;12.340;2022-08-16T04:29:02;4.27;;;3.90;;
21621;SDS011;10973;46.706;12.340;2022-08-16T04:35:38;4.37;;;4.07;;
21621;SDS011;10973;46.706;12.340;2022-08-16T04:38:06;4.40;;;4.00;;
21621;SDS011;10973;46.706;12.340;2022-08-16T04:40:36;4.60;;;4.27;;
21621;SDS011;10973;46.706;12.340;2022-08-16T04:43:04;5.20;;;4.80;;
21621;SDS011;10973;46.706;12.340;2022-08-16T04:49:23;4.60;;;4.20;;
21621;SDS011;10973;46.706;12.340;2022-08-16T04:52:04;4.53;;;4.23;;
21621;SDS011;10973;46.706;12.340;2022-08-16T04:58:43;5.10;;;4.70;;
21621;SDS011;10973;46.706;12.340;2022-08-16T05:05:04;6.13;;;5.47;;
21621;SDS011;10973;46.706;12.340;2022-08-16T05:07:42;5.30;;;4.90;;
21621;SDS011;10973;46.706;12.340;2022-08-16T05:10:25;5.30;;;4.80;;
21621;SDS011;10973;46.706;12.340;2022-08-16T05:12:55;5.27;;;4.77;;
21621;SDS011;10973;46.706;12.340;2022-08-16T05:15:23;6.13;;;4.60;;
21621;SDS011;10973;46.706;12.340;2022-08-16T05:21:44;4.13;;;3.63;;
21621;SDS011;10973;46.706;12.340;2022-08-16T05:24:12;5.93;;;3.93;;
21621;SDS011;10973;46.706;12.340;2022-08-16T05:26:50;4.23;;;3.93;;
21621;SDS011;10973;46.706;12.340;2022-08-16T05:32:24;4.60;;;4.00;;
21621;SDS011;10973;46.706;12.340;2022-08-16T05:34:59;4.70;;;4.30;;
21621;SDS011;10973;46.706;12.340;2022-08-16T05:37:28;4.20;;;3.90;;
21621;SDS011;10973;46.706;12.340;2022-08-16T05:40:06;4.27;;;4.03;;
21621;SDS011;10973;46.706;12.340;2022-08-16T05:42:38;4.60;;;4.20;;
21621;SDS011;10973;46.706;12.340;2022-08-16T05:45:13;4.50;;;4.20;;
21621;SDS011;10973;46.706;12.340;2022-08-16T05:47:47;3.70;;;3.50;;
21621;SDS011;10973;46.706;12.340;2022-08-16T05:54:45;3.60;;;3.30;;
21621;SDS011;10973;46.706;12.340;2022-08-16T05:57:27;5.47;;;3.97;;
21621;SDS011;10973;46.706;12.340;2022-08-16T06:00:02;4.37;;;4.00;;
21621;SDS011;10973;46.706;12.340;2022-08-16T06:02:35;5.03;;;4.13;;
21621;SDS011;10973;46.706;12.340;2022-08-16T06:05:03;3.97;;;3.67;;
21621;SDS011;10973;46.706;12.340;2022-08-16T06:07:36;4.50;;;3.73;;
21621;SDS011;10973;46.706;12.340;2022-08-16T06:10:23;3.50;;;3.20;;
21621;SDS011;10973;46.706;12.340;2022-08-16T06:12:58;3.50;;;3.30;;
21621;SDS011;10973;46.706;12.340;2022-08-16T06:15:26;3.33;;;3.20;;
21621;SDS011;10973;46.706;12.340;2022-08-16T06:20:28;3.53;;;3.33;;
21621;SDS011;10973;46.706;12.340;2022-08-16T06:26:52;3.53;;;3.33;;
21621;SDS011;10973;46.706;12.340;2022-08-16T06:33:15;3.77;;;3.47;;
21621;SDS011;10973;46.706;12.340;2022-08-16T06:35:48;3.53;;;3.33;;
21621;SDS011;10973;46.706;12.340;2022-08-16T06:38:25;3.50;;;3.30;;
21621;SDS011;10973;46.706;12.340;2022-08-16T06:41:06;3.67;;;3.37;;
21621;SDS011;10973;46.706;12.340;2022-08-16T06:43:39;4.07;;;3.77;;
21621;SDS011;10973;46.706;12.340;2022-08-16T06:46:08;3.40;;;3.20;;
21621;SDS011;10973;46.706;12.340;2022-08-16T06:48:57;3.60;;;3.40;;
21621;SDS011;10973;46.706;12.340;2022-08-16T06:51:26;3.83;;;3.57;;
21621;SDS011;10973;46.706;12.340;2022-08-16T06:54:13;3.43;;;3.13;;
21621;SDS011;10973;46.706;12.340;2022-08-16T06:56:42;3.70;;;3.40;;
21621;SDS011;10973;46.706;12.340;2022-08-16T06:59:11;3.40;;;3.20;;
21621;SDS011;10973;46.706;12.340;2022-08-16T07:01:39;3.47;;;3.27;;
21621;SDS011;10973;46.706;12.340;2022-08-16T07:04:19;3.67;;;3.40;;
21621;SDS011;10973;46.706;12.340;2022-08-16T07:06:57;3.30;;;3.10;;
21621;SDS011;10973;46.706;12.340;2022-08-16T07:09:25;3.77;;;3.50;;
21621;SDS011;10973;46.706;12.340;2022-08-16T07:11:56;3.40;;;3.10;;
21621;SDS011;10973;46.706;12.340;2022-08-16T07:14:31;3.17;;;2.97;;
21621;SDS011;10973;46.706;12.340;2022-08-16T07:17:00;3.70;;;3.40;;
21621;SDS011;10973;46.706;12.340;2022-08-16T07:19:28;3.30;;;3.10;;
21621;SDS011;10973;46.706;12.340;2022-08-16T07:22:16;5.50;;;5.00;;
21621;SDS011;10973;46.706;12.340;2022-08-16T07:25:04;4.63;;;4.23;;
21621;SDS011;10973;46.706;12.340;2022-08-16T07:27:38;3.90;;;3.60;;
21621;SDS011;10973;46.706;12.340;2022-08-16T07:33:48;3.50;;;3.20;;
21621;SDS011;10973;46.706;12.340;2022-08-16T07:36:19;3.63;;;3.40;;
21621;SDS011;10973;46.706;12.340;2022-08-16T07:38:48;4.00;;;3.77;;
21621;SDS011;10973;46.706;12.340;2022-08-16T07:41:16;3.67;;;3.47;;
21621;SDS011;10973;46.706;12.340;2022-08-16T07:43:44;3.73;;;3.53;;
21621;SDS011;10973;46.706;12.340;2022-08-16T07:50:04;4.10;;;3.70;;
21621;SDS011;10973;46.706;12.340;2022-08-16T07:56:14;3.47;;;3.27;;
21621;SDS011;10973;46.706;12.340;2022-08-16T07:58:45;3.37;;;3.17;;
21621;SDS011;10973;46.706;12.340;2022-08-16T08:01:20;4.30;;;3.73;;
21621;SDS011;10973;46.706;12.340;2022-08-16T08:03:53;3.97;;;3.70;;
21621;SDS011;10973;46.706;12.340;2022-08-16T08:06:23;5.03;;;3.53;;
21621;SDS011;10973;46.706;12.340;2022-08-16T08:08:53;4.97;;;3.87;;
21621;SDS011;10973;46.706;12.340;2022-08-16T08:15:16;4.20;;;3.40;;
21621;SDS011;10973;46.706;12.340;2022-08-16T08:17:50;3.70;;;3.50;;
21621;SDS011;10973;46.706;12.340;2022-08-16T08:20:20;4.00;;;3.70;;
21621;SDS011;10973;46.706;12.340;2022-08-16T08:29:48;4.60;;;4.20;;
21621;SDS011;10973;46.706;12.340;2022-08-16T08:36:22;4.03;;;3.80;;
21621;SDS011;10973;46.706;12.340;2022-08-16T08:38:59;3.93;;;3.63;;
21621;SDS011;10973;46.706;12.340;2022-08-16T08:41:27;4.50;;;4.20;;
21621;SDS011;10973;46.706;12.340;2022-08-16T08:43:56;4.00;;;3.70;;
21621;SDS011;10973;46.706;12.340;2022-08-16T08:50:15;3.40;;;3.20;;
21621;SDS011;10973;46.706;12.340;2022-08-16T08:52:57;3.67;;;3.47;;
21621;SDS011;10973;46.706;12.340;2022-08-16T08:59:08;4.03;;;3.70;;
21621;SDS011;10973;46.706;12.340;2022-08-16T09:01:45;4.37;;;3.53;;
21621;SDS011;10973;46.706;12.340;2022-08-16T09:04:24;3.80;;;3.60;;
21621;SDS011;10973;46.706;12.340;2022-08-16T09:06:53;3.67;;;3.47;;
21621;SDS011;10973;46.706;12.340;2022-08-16T09:09:23;3.87;;;3.50;;
21621;SDS011;10973;46.706;12.340;2022-08-16T09:11:59;3.70;;;3.50;;
21621;SDS011;10973;46.706;12.340;2022-08-16T09:14:32;4.20;;;3.60;;
21621;SDS011;10973;46.706;12.340;2022-08-16T09:17:01;3.80;;;3.50;;
21621;SDS011;10973;46.706;12.340;2022-08-16T09:19:42;3.50;;;3.30;;
21621;SDS011;10973;46.706;12.340;2022-08-16T09:22:11;4.17;;;3.80;;
21621;SDS011;10973;46.706;12.340;2022-08-16T09:24:46;4.57;;;3.83;;
21621;SDS011;10973;46.706;12.340;2022-08-16T09:27:20;4.00;;;3.70;;
21621;SDS011;10973;46.706;12.340;2022-08-16T09:29:48;3.70;;;3.40;;
21621;SDS011;10973;46.706;12.340;2022-08-16T09:32:26;3.67;;;3.47;;
21621;SDS011;10973;46.706;12.340;2022-08-16T09:34:57;3.70;;;3.50;;
21621;SDS011;10973;46.706;12.340;2022-08-16T09:37:29;3.70;;;3.40;;
21621;SDS011;10973;46.706;12.340;2022-08-16T09:40:03;3.20;;;3.00;;
21621;SDS011;10973;46.706;12.340;2022-08-16T09:42:52;3.13;;;3.03;;
21621;SDS011;10973;46.706;12.340;2022-08-16T09:45:24;3.50;;;3.30;;
21621;SDS011;10973;46.706;12.340;2022-08-16T09:47:54;3.30;;;3.03;;
21621;SDS011;10973;46.706;12.340;2022-08-16T09:50:24;3.30;;;3.07;;
21621;SDS011;10973;46.706;12.340;2022-08-16T09:53:07;3.80;;;3.17;;
21621;SDS011;10973;46.706;12.340;2022-08-16T09:55:43;2.87;;;2.67;;
21621;SDS011;10973;46.706;12.340;2022-08-16T09:58:16;3.50;;;3.10;;
21621;SDS011;10973;46.706;12.340;2022-08-16T10:01:05;2.67;;;2.57;;
21621;SDS011;10973;46.706;12.340;2022-08-16T10:03:34;2.80;;;2.67;;
21621;SDS011;10973;46.706;12.340;2022-08-16T10:06:02;2.73;;;2.63;;
21621;SDS011;10973;46.706;12.340;2022-08-16T10:08:29;2.70;;;2.60;;
21621;SDS011;10973;46.706;12.340;2022-08-16T10:11:16;2.90;;;2.70;;
21621;SDS011;10973;46.706;12.340;2022-08-16T10:13:50;2.77;;;2.67;;
21621;SDS011;10973;46.706;12.340;2022-08-16T10:20:09;3.08;;;2.88;;
21621;SDS011;10973;46.706;12.340;2022-08-16T10:22:43;3.70;;;2.43;;
21621;SDS011;10973;46.706;12.340;2022-08-16T10:28:52;2.83;;;2.63;;
21621;SDS011;10973;46.706;12.340;2022-08-16T10:31:20;2.70;;;2.60;;
21621;SDS011;10973;46.706;12.340;2022-08-16T10:34:08;3.33;;;2.25;;
21621;SDS011;10973;46.706;12.340;2022-08-16T10:36:55;2.53;;;2.37;;
21621;SDS011;10973;46.706;12.340;2022-08-16T10:39:23;2.20;;;2.10;;
21621;SDS011;10973;46.706;12.340;2022-08-16T10:45:42;2.30;;;2.20;;
21621;SDS011;10973;46.706;12.340;2022-08-16T10:48:26;2.65;;;2.45;;
21621;SDS011;10973;46.706;12.340;2022-08-16T10:55:02;2.22;;;2.13;;
21621;SDS011;10973;46.706;12.340;2022-08-16T10:57:53;2.40;;;2.20;;
21621;SDS011;10973;46.706;12.340;2022-08-16T11:00:22;2.25;;;2.15;;
21621;SDS011;10973;46.706;12.340;2022-08-16T11:02:50;2.05;;;1.95;;
21621;SDS011;10973;46.706;12.340;2022-08-16T11:09:17;2.28;;;2.15;;
21621;SDS011;10973;46.706;12.340;2022-08-16T11:11:53;2.55;;;2.00;;
21621;SDS011;10973;46.706;12.340;2022-08-16T11:14:39;2.45;;;2.22;;
21621;SDS011;10973;46.706;12.340;2022-08-16T11:17:27;2.22;;;2.13;;
21621;SDS011;10973;46.706;12.340;2022-08-16T11:23:07;2.30;;;2.10;;
21621;SDS011;10973;46.706;12.340;2022-08-16T11:33:31;2.72;;;1.85;;
21621;SDS011;10973;46.706;12.340;2022-08-16T11:36:18;3.65;;;1.95;;
21621;SDS011;10973;46.706;12.340;2022-08-16T11:38:52;2.03;;;1.90;;
21621;SDS011;10973;46.706;12.340;2022-08-16T11:45:33;2.00;;;1.90;;
21621;SDS011;10973;46.706;12.340;2022-08-16T11:57:29;1.70;;;1.60;;
21621;SDS011;10973;46.706;12.340;2022-08-16T11:59:57;1.80;;;1.70;;
21621;SDS011;10973;46.706;12.340;2022-08-16T12:02:25;2.00;;;1.90;;
21621;SDS011;10973;46.706;12.340;2022-08-16T12:04:58;1.77;;;1.67;;
21621;SDS011;10973;46.706;12.340;2022-08-16T12:07:26;1.88;;;1.80;;
21621;SDS011;10973;46.706;12.340;2022-08-16T12:09:54;1.60;;;1.60;;
21621;SDS011;10973;46.706;12.340;2022-08-16T12:12:21;1.85;;;1.75;;
21621;SDS011;10973;46.706;12.340;2022-08-16T12:18:58;1.85;;;1.75;;
21621;SDS011;10973;46.706;12.340;2022-08-16T12:21:26;2.03;;;1.92;;
21621;SDS011;10973;46.706;12.340;2022-08-16T12:24:13;2.10;;;2.00;;
21621;SDS011;10973;46.706;12.340;2022-08-16T12:30:51;1.90;;;1.80;;
21621;SDS011;10973;46.706;12.340;2022-08-16T12:33:18;1.70;;;1.70;;
21621;SDS011;10973;46.706;12.340;2022-08-16T12:35:51;2.03;;;1.92;;
21621;SDS011;10973;46.706;12.340;2022-08-16T12:42:28;2.00;;;1.90;;
21621;SDS011;10973;46.706;12.340;2022-08-16T12:45:05;1.95;;;1.85;;
21621;SDS011;10973;46.706;12.340;2022-08-16T12:47:37;2.30;;;2.20;;
21621;SDS011;10973;46.706;12.340;2022-08-16T12:59:27;2.03;;;1.92;;
21621;SDS011;10973;46.706;12.340;2022-08-16T13:01:56;2.17;;;2.08;;
21621;SDS011;10973;46.706;12.340;2022-08-16T13:04:24;2.13;;;2.03;;
21621;SDS011;10973;46.706;12.340;2022-08-16T13:06:59;2.10;;;2.00;;
21621;SDS011;10973;46.706;12.340;2022-08-16T13:09:28;1.85;;;1.75;;
21621;SDS011;10973;46.706;12.340;2022-08-16T13:12:04;1.92;;;1.83;;
21621;SDS011;10973;46.706;12.340;2022-08-16T13:14:37;2.45;;;2.08;;
21621;SDS011;10973;46.706;12.340;2022-08-16T13:21:16;2.33;;;2.13;;
21621;SDS011;10973;46.706;12.340;2022-08-16T13:23:43;2.00;;;1.90;;
21621;SDS011;10973;46.706;12.340;2022-08-16T13:26:11;2.05;;;1.95;;
21621;SDS011;10973;46.706;12.340;2022-08-16T13:28:43;1.92;;;1.83;;
21621;SDS011;10973;46.706;12.340;2022-08-16T13:31:13;2.00;;;1.90;;
21621;SDS011;10973;46.706;12.340;2022-08-16T13:37:07;2.03;;;1.92;;
21621;SDS011;10973;46.706;12.340;2022-08-16T13:43:45;2.00;;;1.90;;
21621;SDS011;10973;46.706;12.340;2022-08-16T13:46:25;2.03;;;1.92;;
21621;SDS011;10973;46.706;12.340;2022-08-16T13:48:55;2.60;;;2.20;;
21621;SDS011;10973;46.706;12.340;2022-08-16T13:51:24;2.45;;;2.22;;
21621;SDS011;10973;46.706;12.340;2022-08-16T13:53:56;1.83;;;1.83;;
21621;SDS011;10973;46.706;12.340;2022-08-16T13:56:29;2.10;;;2.00;;
21621;SDS011;10973;46.706;12.340;2022-08-16T13:59:04;2.33;;;2.15;;
21621;SDS011;10973;46.706;12.340;2022-08-16T14:01:47;1.98;;;1.98;;
21621;SDS011;10973;46.706;12.340;2022-08-16T14:08:24;2.28;;;2.17;;
21621;SDS011;10973;46.706;12.340;2022-08-16T14:10:52;2.38;;;2.05;;
21621;SDS011;10973;46.706;12.340;2022-08-16T14:13:20;2.08;;;2.03;;
21621;SDS011;10973;46.706;12.340;2022-08-16T14:15:48;2.50;;;2.35;;
21621;SDS011;10973;46.706;12.340;2022-08-16T14:18:15;2.20;;;2.00;;
21621;SDS011;10973;46.706;12.340;2022-08-16T14:20:46;2.00;;;1.90;;
21621;SDS011;10973;46.706;12.340;2022-08-16T14:23:16;2.10;;;2.00;;
21621;SDS011;10973;46.706;12.340;2022-08-16T14:25:49;2.15;;;2.05;;
21621;SDS011;10973;46.706;12.340;2022-08-16T14:28:19;2.05;;;2.00;;
21621;SDS011;10973;46.706;12.340;2022-08-16T14:30:49;2.63;;;2.00;;
21621;SDS011;10973;46.706;12.340;2022-08-16T14:33:17;2.10;;;1.95;;
21621;SDS011;10973;46.706;12.340;2022-08-16T14:35:44;2.08;;;1.92;;
21621;SDS011;10973;46.706;12.340;2022-08-16T14:38:16;1.90;;;1.80;;
21621;SDS011;10973;46.706;12.340;2022-08-16T14:40:49;2.17;;;2.08;;
21621;SDS011;10973;46.706;12.340;2022-08-16T14:43:21;1.85;;;1.75;;
21621;SDS011;10973;46.706;12.340;2022-08-16T14:45:50;2.88;;;2.22;;
21621;SDS011;10973;46.706;12.340;2022-08-16T14:56:53;2.08;;;1.98;;
21621;SDS011;10973;46.706;12.340;2022-08-16T14:59:21;2.33;;;2.13;;
21621;SDS011;10973;46.706;12.340;2022-08-16T15:01:51;3.38;;;2.13;;
21621;SDS011;10973;46.706;12.340;2022-08-16T15:04:27;2.20;;;2.10;;
21621;SDS011;10973;46.706;12.340;2022-08-16T15:07:06;2.30;;;2.20;;
21621;SDS011;10973;46.706;12.340;2022-08-16T15:09:38;1.95;;;1.85;;
21621;SDS011;10973;46.706;12.340;2022-08-16T15:12:25;2.35;;;2.15;;
21621;SDS011;10973;46.706;12.340;2022-08-16T15:19:01;2.15;;;2.05;;
21621;SDS011;10973;46.706;12.340;2022-08-16T15:21:28;3.03;;;2.30;;
21621;SDS011;10973;46.706;12.340;2022-08-16T15:23:57;2.22;;;2.10;;
21621;SDS011;10973;46.706;12.340;2022-08-16T15:26:26;2.10;;;2.00;;
21621;SDS011;10973;46.706;12.340;2022-08-16T15:29:10;2.65;;;2.08;;
21621;SDS011;10973;46.706;12.340;2022-08-16T15:39:12;2.65;;;2.45;;
21621;SDS011;10973;46.706;12.340;2022-08-16T15:42:00;2.30;;;2.20;;
21621;SDS011;10973;46.706;12.340;2022-08-16T15:44:36;2.38;;;2.28;;
21621;SDS011;10973;46.706;12.340;2022-08-16T15:47:18;2.58;;;2.20;;
21621;SDS011;10973;46.706;12.340;2022-08-16T15:57:19;2.42;;;2.33;;
21621;SDS011;10973;46.706;12.340;2022-08-16T16:03:58;2.78;;;2.53;;
21621;SDS011;10973;46.706;12.340;2022-08-16T16:06:25;2.60;;;2.50;;
21621;SDS011;10973;46.706;12.340;2022-08-16T16:12:54;2.60;;;2.50;;
21621;SDS011;10973;46.706;12.340;2022-08-16T16:19:21;2.60;;;2.40;;
21621;SDS011;10973;46.706;12.340;2022-08-16T16:29:38;2.65;;;2.45;;
21621;SDS011;10973;46.706;12.340;2022-08-16T16:32:11;2.78;;;2.58;;
21621;SDS011;10973;46.706;12.340;2022-08-16T16:38:40;5.13;;;2.42;;
21621;SDS011;10973;46.706;12.340;2022-08-16T16:41:09;3.38;;;2.90;;
21621;SDS011;10973;46.706;12.340;2022-08-16T16:43:38;3.67;;;2.53;;
21621;SDS011;10973;46.706;12.340;2022-08-16T16:46:10;3.35;;;2.50;;
21621;SDS011;10973;46.706;12.340;2022-08-16T16:49:00;3.75;;;2.58;;
21621;SDS011;10973;46.706;12.340;2022-08-16T16:55:42;2.75;;;2.58;;
21621;SDS011;10973;46.706;12.340;2022-08-16T16:58:20;2.72;;;2.53;;
21621;SDS011;10973;46.706;12.340;2022-08-16T17:05:00;3.92;;;2.55;;
21621;SDS011;10973;46.706;12.340;2022-08-16T17:11:28;2.80;;;2.70;;
21621;SDS011;10973;46.706;12.340;2022-08-16T17:14:04;2.67;;;2.50;;
21621;SDS011;10973;46.706;12.340;2022-08-16T17:16:53;2.60;;;2.47;;
21621;SDS011;10973;46.706;12.340;2022-08-16T17:19:20;3.58;;;3.22;;
21621;SDS011;10973;46.706;12.340;2022-08-16T17:21:49;2.63;;;2.53;;
21621;SDS011;10973;46.706;12.340;2022-08-16T17:24:16;2.65;;;2.55;;
21621;SDS011;10973;46.706;12.340;2022-08-16T17:31:12;2.88;;;2.70;;
21621;SDS011;10973;46.706;12.340;2022-08-16T17:33:41;2.65;;;2.55;;
21621;SDS011;10973;46.706;12.340;2022-08-16T17:36:20;2.92;;;2.70;;
21621;SDS011;10973;46.706;12.340;2022-08-16T17:39:02;2.60;;;2.50;;
21621;SDS011;10973;46.706;12.340;2022-08-16T17:41:34;3.83;;;3.10;;
21621;SDS011;10973;46.706;12.340;2022-08-16T17:44:02;3.00;;;2.80;;
21621;SDS011;10973;46.706;12.340;2022-08-16T17:46:30;3.00;;;2.80;;
21621;SDS011;10973;46.706;12.340;2022-08-16T17:49:18;2.97;;;2.78;;
21621;SDS011;10973;46.706;12.340;2022-08-16T17:51:46;3.25;;;3.05;;
21621;SDS011;10973;46.706;12.340;2022-08-16T17:54:14;4.25;;;3.95;;
21621;SDS011;10973;46.706;12.340;2022-08-16T17:56:57;3.45;;;3.25;;
21621;SDS011;10973;46.706;12.340;2022-08-16T17:59:26;4.13;;;2.83;;
21621;SDS011;10973;46.706;12.340;2022-08-16T18:01:55;2.70;;;2.60;;
21621;SDS011;10973;46.706;12.340;2022-08-16T18:04:23;2.85;;;2.53;;
21621;SDS011;10973;46.706;12.340;2022-08-16T18:07:12;2.92;;;2.83;;
21621;SDS011;10973;46.706;12.340;2022-08-16T18:09:39;3.03;;;2.88;;
21621;SDS011;10973;46.706;12.340;2022-08-16T18:12:14;2.95;;;2.83;;
21621;SDS011;10973;46.706;12.340;2022-08-16T18:15:05;3.58;;;2.90;;
21621;SDS011;10973;46.706;12.340;2022-08-16T18:17:40;3.40;;;3.10;;
21621;SDS011;10973;46.706;12.340;2022-08-16T18:20:08;3.40;;;3.20;;
21621;SDS011;10973;46.706;12.340;2022-08-16T18:22:38;3.40;;;3.20;;
21621;SDS011;10973;46.706;12.340;2022-08-16T18:25:06;3.13;;;2.95;;
21621;SDS011;10973;46.706;12.340;2022-08-16T18:27:33;3.42;;;2.75;;
21621;SDS011;10973;46.706;12.340;2022-08-16T18:30:01;3.22;;;3.10;;
21621;SDS011;10973;46.706;12.340;2022-08-16T18:32:29;3.85;;;3.50;;
21621;SDS011;10973;46.706;12.340;2022-08-16T18:34:56;3.20;;;3.00;;
21621;SDS011;10973;46.706;12.340;2022-08-16T18:37:24;3.25;;;3.05;;
21621;SDS011;10973;46.706;12.340;2022-08-16T18:39:51;3.83;;;3.53;;
21621;SDS011;10973;46.706;12.340;2022-08-16T18:42:18;3.33;;;3.13;;
21621;SDS011;10973;46.706;12.340;2022-08-16T18:44:46;3.30;;;3.10;;
21621;SDS011;10973;46.706;12.340;2022-08-16T18:47:13;4.15;;;3.35;;
21621;SDS011;10973;46.706;12.340;2022-08-16T18:49:40;3.30;;;3.10;;
21621;SDS011;10973;46.706;12.340;2022-08-16T18:52:12;3.35;;;3.15;;
21621;SDS011;10973;46.706;12.340;2022-08-16T18:54:51;3.42;;;3.22;;
21621;SDS011;10973;46.706;12.340;2022-08-16T18:57:38;3.40;;;3.20;;
21621;SDS011;10973;46.706;12.340;2022-08-16T19:00:06;3.15;;;3.00;;
21621;SDS011;10973;46.706;12.340;2022-08-16T19:02:34;3.25;;;3.10;;
21621;SDS011;10973;46.706;12.340;2022-08-16T19:05:23;3.50;;;3.30;;
21621;SDS011;10973;46.706;12.340;2022-08-16T19:07:53;3.53;;;3.05;;
21621;SDS011;10973;46.706;12.340;2022-08-16T19:10:20;3.30;;;3.10;;
21621;SDS011;10973;46.706;12.340;2022-08-16T19:12:48;3.50;;;3.20;;
21621;SDS011;10973;46.706;12.340;2022-08-16T19:15:17;3.67;;;3.38;;
21621;SDS011;10973;46.706;12.340;2022-08-16T19:17:51;3.33;;;3.00;;
21621;SDS011;10973;46.706;12.340;2022-08-16T19:20:22;3.40;;;3.20;;
21621;SDS011;10973;46.706;12.340;2022-08-16T19:22:52;3.40;;;3.17;;
21621;SDS011;10973;46.706;12.340;2022-08-16T19:25:32;3.20;;;3.00;;
21621;SDS011;10973;46.706;12.340;2022-08-16T19:28:19;3.00;;;2.72;;
21621;SDS011;10973;46.706;12.340;2022-08-16T19:31:14;3.17;;;2.97;;
21621;SDS011;10973;46.706;12.340;2022-08-16T19:33:52;3.67;;;3.47;;
21621;SDS011;10973;46.706;12.340;2022-08-16T19:36:27;3.20;;;2.90;;
21621;SDS011;10973;46.706;12.340;2022-08-16T19:39:06;3.30;;;3.10;;
21621;SDS011;10973;46.706;12.340;2022-08-16T19:41:39;3.30;;;3.10;;
21621;SDS011;10973;46.706;12.340;2022-08-16T19:44:20;3.30;;;3.00;;
21621;SDS011;10973;46.706;12.340;2022-08-16T19:46:49;3.63;;;3.13;;
21621;SDS011;10973;46.706;12.340;2022-08-16T19:49:16;3.25;;;3.05;;
21621;SDS011;10973;46.706;12.340;2022-08-16T19:51:44;4.28;;;3.08;;
21621;SDS011;10973;46.706;12.340;2022-08-16T19:54:12;3.57;;;3.30;;
21621;SDS011;10973;46.706;12.340;2022-08-16T19:56:40;3.45;;;3.15;;
21621;SDS011;10973;46.706;12.340;2022-08-16T19:59:08;3.40;;;3.20;;
21621;SDS011;10973;46.706;12.340;2022-08-16T20:01:46;2.97;;;2.88;;
21621;SDS011;10973;46.706;12.340;2022-08-16T20:04:15;3.30;;;3.10;;
21621;SDS011;10973;46.706;12.340;2022-08-16T20:06:42;3.50;;;3.10;;
21621;SDS011;10973;46.706;12.340;2022-08-16T20:09:09;3.17;;;2.97;;
21621;SDS011;10973;46.706;12.340;2022-08-16T20:11:44;3.08;;;2.88;;
21621;SDS011;10973;46.706;12.340;2022-08-16T20:14:14;3.20;;;3.00;;
21621;SDS011;10973;46.706;12.340;2022-08-16T20:16:51;3.80;;;3.33;;
21621;SDS011;10973;46.706;12.340;2022-08-16T20:19:25;3.40;;;3.20;;
21621;SDS011;10973;46.706;12.340;2022-08-16T20:22:04;3.55;;;3.28;;
21621;SDS011;10973;46.706;12.340;2022-08-16T20:25:06;2.90;;;2.80;;